createdAt,value
2019-02-21T00:00:35.066Z,54.60
2019-02-21T00:01:34.959Z,53.40
2019-02-21T00:02:34.872Z,47.00
2019-02-21T00:03:34.850Z,46.50
2019-02-21T00:04:34.654Z,53.70
2019-02-21T00:05:34.544Z,50.50
2019-02-21T00:06:34.448Z,62.00
2019-02-21T00:07:34.360Z,67.50
2019-02-21T00:08:34.241Z,63.50
2019-02-21T00:09:34.137Z,61.90
2019-02-21T00:10:34.135Z,62.70
2019-02-21T00:11:33.930Z,69.20
2019-02-21T00:12:33.847Z,72.20
2019-02-21T00:13:33.726Z,69.70
2019-02-21T00:14:33.626Z,72.20
2019-02-21T00:15:33.543Z,75.20
2019-02-21T00:16:33.419Z,77.40
2019-02-21T00:17:33.433Z,74.70
2019-02-21T00:18:33.229Z,64.70
2019-02-21T00:19:33.111Z,72.50
2019-02-21T00:20:33.009Z,74.50
2019-02-21T00:21:32.904Z,77.50
2019-02-21T00:22:32.806Z,69.60
2019-02-21T00:23:32.716Z,71.50
2019-02-21T00:24:32.700Z,72.70
2019-02-21T00:25:32.496Z,64.90
2019-02-21T00:26:32.395Z,68.30
2019-02-21T00:27:32.293Z,61.90
2019-02-21T00:28:32.205Z,62.10
2019-02-21T00:29:32.088Z,68.50
2019-02-21T00:30:35.339Z,61.20
2019-02-21T00:31:31.982Z,52.00
2019-02-21T00:32:31.789Z,57.00
2019-02-21T00:33:31.709Z,58.90
2019-02-21T00:34:31.585Z,56.30
2019-02-21T00:35:31.473Z,53.90
2019-02-21T00:36:31.371Z,45.80
2019-02-21T00:37:31.269Z,46.80
2019-02-21T00:38:31.288Z,57.70
2019-02-21T00:39:31.060Z,61.00
2019-02-21T00:40:30.959Z,64.50
2019-02-21T00:41:30.858Z,56.60
2019-02-21T00:42:30.760Z,51.10
2019-02-21T00:43:30.670Z,51.20
2019-02-21T00:44:30.550Z,47.50
2019-02-21T00:45:30.552Z,41.30
2019-02-21T00:46:30.347Z,42.60
2019-02-21T00:47:30.246Z,45.40
2019-02-21T00:48:30.163Z,38.60
2019-02-21T00:49:30.037Z,35.70
2019-02-21T00:50:29.935Z,52.10
2019-02-21T00:51:29.970Z,54.80
2019-02-21T00:52:31.502Z,57.40
2019-02-21T00:53:29.648Z,55.60
2019-02-21T00:54:29.529Z,55.50
2019-02-21T00:55:29.423Z,47.50
2019-02-21T00:56:29.321Z,56.30
2019-02-21T00:57:29.222Z,57.60
2019-02-21T00:58:29.139Z,60.60
2019-02-21T00:59:29.016Z,60.30
2019-02-21T01:00:28.912Z,60.60
2019-02-21T01:01:28.811Z,57.60
2019-02-21T01:02:28.708Z,60.30
2019-02-21T01:03:28.624Z,47.70
2019-02-21T01:04:28.501Z,42.20
2019-02-21T01:05:28.402Z,54.40
2019-02-21T01:06:28.297Z,76.00
2019-02-21T01:07:28.194Z,70.80
2019-02-21T01:08:28.109Z,69.30
2019-02-21T01:09:27.998Z,61.00
2019-02-21T01:10:27.888Z,47.80
2019-02-21T01:11:27.783Z,55.30
2019-02-21T01:12:27.682Z,55.50
2019-02-21T01:13:27.598Z,57.00
2019-02-21T01:14:27.478Z,69.30
2019-02-21T01:15:27.373Z,71.30
2019-02-21T01:16:27.275Z,66.40
2019-02-21T01:17:27.172Z,61.20
2019-02-21T01:18:27.092Z,57.40
2019-02-21T01:19:26.970Z,59.50
2019-02-21T01:20:26.862Z,57.10
2019-02-21T01:21:26.763Z,55.20
2019-02-21T01:22:26.657Z,53.50
2019-02-21T01:23:26.574Z,63.00
2019-02-21T01:24:26.454Z,57.50
2019-02-21T01:25:26.353Z,56.30
2019-02-21T01:26:26.259Z,60.10
2019-02-21T01:27:26.258Z,57.20
2019-02-21T01:28:26.064Z,55.00
2019-02-21T01:29:25.944Z,69.50
2019-02-21T01:30:25.840Z,75.50
2019-02-21T01:31:25.738Z,71.10
2019-02-21T01:32:25.632Z,74.80
2019-02-21T01:33:25.549Z,58.00
2019-02-21T01:34:25.449Z,62.80
2019-02-21T01:35:25.327Z,68.10
2019-02-21T01:36:25.226Z,44.90
2019-02-21T01:37:25.125Z,44.40
2019-02-21T01:38:25.042Z,47.30
2019-02-21T01:39:24.966Z,46.20
2019-02-21T01:40:24.813Z,46.20
2019-02-21T01:41:24.715Z,61.00
2019-02-21T01:42:24.617Z,62.10
2019-02-21T01:43:24.525Z,53.80
2019-02-21T01:44:24.406Z,51.90
2019-02-21T01:45:24.303Z,50.80
2019-02-21T01:46:24.202Z,58.30
2019-02-21T01:47:24.100Z,59.90
2019-02-21T01:48:24.014Z,46.10
2019-02-21T01:49:23.894Z,47.70
2019-02-21T01:50:23.790Z,49.30
2019-02-21T01:51:23.688Z,58.70
2019-02-21T01:52:23.584Z,65.20
2019-02-21T01:53:23.509Z,55.30
2019-02-21T01:54:23.382Z,66.40
2019-02-21T01:55:23.277Z,54.70
2019-02-21T01:56:23.177Z,58.30
2019-02-21T01:57:23.073Z,59.70
2019-02-21T01:58:22.986Z,76.10
2019-02-21T01:59:22.867Z,84.20
2019-02-21T02:00:22.766Z,76.40
2019-02-21T02:01:22.664Z,88.70
2019-02-21T02:02:22.559Z,86.40
2019-02-21T02:03:22.461Z,53.50
2019-02-21T02:04:22.373Z,57.50
2019-02-21T02:05:22.252Z,79.50
2019-02-21T02:06:22.151Z,82.10
2019-02-21T02:07:22.045Z,92.10
2019-02-21T02:08:21.949Z,97.70
2019-02-21T02:09:21.868Z,88.30
2019-02-21T02:10:21.742Z,90.40
2019-02-21T02:11:21.636Z,78.60
2019-02-21T02:12:21.532Z,90.00
2019-02-21T02:13:24.564Z,87.10
2019-02-21T02:14:21.347Z,84.90
2019-02-21T02:15:21.223Z,78.30
2019-02-21T02:16:21.122Z,83.30
2019-02-21T02:17:21.019Z,90.20
2019-02-21T02:18:20.918Z,87.20
2019-02-21T02:19:20.830Z,81.30
2019-02-21T02:20:20.712Z,73.30
2019-02-21T02:21:20.610Z,85.50
2019-02-21T02:22:20.508Z,84.80
2019-02-21T02:23:20.501Z,72.90
2019-02-21T02:24:20.318Z,52.30
2019-02-21T02:25:20.200Z,80.10
2019-02-21T02:26:20.094Z,86.30
2019-02-21T02:27:19.990Z,90.50
2019-02-21T02:28:19.893Z,84.20
2019-02-21T02:29:19.810Z,70.90
2019-02-21T02:30:19.807Z,56.80
2019-02-21T02:31:23.433Z,70.00
2019-02-21T02:32:19.479Z,78.50
2019-02-21T02:33:19.377Z,66.00
2019-02-21T02:34:19.291Z,87.10
2019-02-21T02:35:19.171Z,88.80
2019-02-21T02:36:19.071Z,93.00
2019-02-21T02:37:19.068Z,101.40
2019-02-21T02:38:18.867Z,91.10
2019-02-21T02:39:18.780Z,80.00
2019-02-21T02:40:18.689Z,76.20
2019-02-21T02:41:18.554Z,87.70
2019-02-21T02:42:18.455Z,79.20
2019-02-21T02:43:18.348Z,58.60
2019-02-21T02:44:18.369Z,65.40
2019-02-21T02:45:18.147Z,65.30
2019-02-21T02:46:18.045Z,71.80
2019-02-21T02:47:17.939Z,63.80
2019-02-21T02:48:17.836Z,48.60
2019-02-21T02:49:17.777Z,60.70
2019-02-21T02:50:17.632Z,63.40
2019-02-21T02:51:17.633Z,47.20
2019-02-21T02:52:17.431Z,46.60
2019-02-21T02:53:17.324Z,59.40
2019-02-21T02:54:17.237Z,70.60
2019-02-21T02:55:17.118Z,54.30
2019-02-21T02:56:17.016Z,58.20
2019-02-21T02:57:16.917Z,77.50
2019-02-21T02:58:16.927Z,76.30
2019-02-21T02:59:16.728Z,71.80
2019-02-21T03:00:16.606Z,72.00
2019-02-21T03:01:16.501Z,61.30
2019-02-21T03:02:16.404Z,80.00
2019-02-21T03:03:16.297Z,77.30
2019-02-21T03:04:16.300Z,81.70
2019-02-21T03:05:16.203Z,84.60
2019-02-21T03:06:15.989Z,82.10
2019-02-21T03:07:15.905Z,89.90
2019-02-21T03:08:15.786Z,87.70
2019-02-21T03:09:15.701Z,87.20
2019-02-21T03:10:15.580Z,86.60
2019-02-21T03:11:15.553Z,74.50
2019-02-21T03:12:15.483Z,77.60
2019-02-21T03:13:15.278Z,65.40
2019-02-21T03:14:15.191Z,57.90
2019-02-21T03:15:15.067Z,62.80
2019-02-21T03:16:14.979Z,67.00
2019-02-21T03:17:14.862Z,77.80
2019-02-21T03:18:14.771Z,74.90
2019-02-21T03:19:14.779Z,82.40
2019-02-21T03:20:14.552Z,82.30
2019-02-21T03:21:14.452Z,78.00
2019-02-21T03:22:14.352Z,77.30
2019-02-21T03:23:14.248Z,77.70
2019-02-21T03:24:14.160Z,72.60
2019-02-21T03:25:14.043Z,68.90
2019-02-21T03:26:14.057Z,65.70
2019-02-21T03:27:13.840Z,73.80
2019-02-21T03:28:13.762Z,81.80
2019-02-21T03:29:13.647Z,80.20
2019-02-21T03:30:13.544Z,74.30
2019-02-21T03:31:13.426Z,70.90
2019-02-21T03:32:13.323Z,65.70
2019-02-21T03:33:13.424Z,57.30
2019-02-21T03:34:13.136Z,54.00
2019-02-21T03:35:13.046Z,55.00
2019-02-21T03:36:12.916Z,64.00
2019-02-21T03:37:12.815Z,52.60
2019-02-21T03:38:12.712Z,66.20
2019-02-21T03:39:12.627Z,62.90
2019-02-21T03:40:12.712Z,61.50
2019-02-21T03:41:12.416Z,63.10
2019-02-21T03:42:12.302Z,61.80
2019-02-21T03:43:12.210Z,53.20
2019-02-21T03:44:12.097Z,51.70
2019-02-21T03:45:12.025Z,68.10
2019-02-21T03:46:11.894Z,56.50
2019-02-21T03:47:11.886Z,58.40
2019-02-21T03:48:11.690Z,54.00
2019-02-21T03:49:11.585Z,52.80
2019-02-21T03:50:11.498Z,51.60
2019-02-21T03:51:11.380Z,54.30
2019-02-21T03:52:11.323Z,63.20
2019-02-21T03:53:11.309Z,63.50
2019-02-21T03:54:11.077Z,59.70
2019-02-21T03:55:10.988Z,66.30
2019-02-21T03:56:10.896Z,68.30
2019-02-21T03:57:10.766Z,73.50
2019-02-21T03:58:10.665Z,78.60
2019-02-21T03:59:10.565Z,81.00
2019-02-21T04:00:10.477Z,69.70
2019-02-21T04:01:10.358Z,70.40
2019-02-21T04:02:10.254Z,70.40
2019-02-21T04:03:10.155Z,64.50
2019-02-21T04:04:10.054Z,81.30
2019-02-21T04:05:09.980Z,83.40
2019-02-21T04:06:09.848Z,70.50
2019-02-21T04:07:09.743Z,68.10
2019-02-21T04:08:09.729Z,72.90
2019-02-21T04:09:09.540Z,58.60
2019-02-21T04:10:09.454Z,56.20
2019-02-21T04:11:09.337Z,50.20
2019-02-21T04:12:09.241Z,56.40
2019-02-21T04:13:09.133Z,52.20
2019-02-21T04:14:09.027Z,49.40
2019-02-21T04:15:08.948Z,48.30
2019-02-21T04:16:08.826Z,58.30
2019-02-21T04:17:08.723Z,58.30
2019-02-21T04:18:08.623Z,57.00
2019-02-21T04:19:08.526Z,53.50
2019-02-21T04:20:08.445Z,52.00
2019-02-21T04:21:08.339Z,50.30
2019-02-21T04:22:08.213Z,56.60
2019-02-21T04:23:08.108Z,53.80
2019-02-21T04:24:08.009Z,53.50
2019-02-21T04:25:07.923Z,43.70
2019-02-21T04:26:07.803Z,49.30
2019-02-21T04:27:07.700Z,42.90
2019-02-21T04:28:07.602Z,45.40
2019-02-21T04:29:07.498Z,48.70
2019-02-21T04:30:07.413Z,64.80
2019-02-21T04:31:07.294Z,62.60
2019-02-21T04:32:16.679Z,54.10
2019-02-21T04:33:07.088Z,52.30
2019-02-21T04:34:06.994Z,53.80
2019-02-21T04:35:06.901Z,64.10
2019-02-21T04:36:06.784Z,64.30
2019-02-21T04:37:06.686Z,51.90
2019-02-21T04:38:06.581Z,59.30
2019-02-21T04:39:06.479Z,71.20
2019-02-21T04:40:06.406Z,77.10
2019-02-21T04:41:06.279Z,69.50
2019-02-21T04:42:06.173Z,77.60
2019-02-21T04:43:06.071Z,76.70
2019-02-21T04:44:05.992Z,76.60
2019-02-21T04:45:05.892Z,73.60
2019-02-21T04:46:05.767Z,72.50
2019-02-21T04:47:05.665Z,59.20
2019-02-21T04:48:05.585Z,74.30
2019-02-21T04:49:05.458Z,77.00
2019-02-21T04:50:05.413Z,71.90
2019-02-21T04:51:05.258Z,58.50
2019-02-21T04:52:05.157Z,52.40
2019-02-21T04:53:05.054Z,50.40
2019-02-21T04:54:04.949Z,53.50
2019-02-21T04:55:04.881Z,54.00
2019-02-21T04:56:04.745Z,67.00
2019-02-21T04:57:04.751Z,85.50
2019-02-21T04:58:04.544Z,91.60
2019-02-21T04:59:06.589Z,91.30
2019-02-21T05:00:04.361Z,81.40
2019-02-21T05:01:04.240Z,81.00
2019-02-21T05:02:04.135Z,69.30
2019-02-21T05:03:04.034Z,73.40
2019-02-21T05:04:04.907Z,88.30
2019-02-21T05:05:03.843Z,78.30
2019-02-21T05:06:03.729Z,77.70
2019-02-21T05:07:03.624Z,63.60
2019-02-21T05:08:03.522Z,71.30
2019-02-21T05:09:03.425Z,62.70
2019-02-21T05:10:03.438Z,55.00
2019-02-21T05:11:03.222Z,63.10
2019-02-21T05:12:03.116Z,63.50
2019-02-21T05:13:03.014Z,69.20
2019-02-21T05:14:02.913Z,70.60
2019-02-21T05:15:02.830Z,58.40
2019-02-21T05:16:02.711Z,62.90
2019-02-21T05:17:02.613Z,61.70
2019-02-21T05:18:02.508Z,61.10
2019-02-21T05:19:02.426Z,62.80
2019-02-21T05:20:02.319Z,58.50
2019-02-21T05:21:02.199Z,58.30
2019-02-21T05:22:02.117Z,57.10
2019-02-21T05:23:01.997Z,57.20
2019-02-21T05:24:01.998Z,55.90
2019-02-21T05:25:01.813Z,54.80
2019-02-21T05:26:01.703Z,52.70
2019-02-21T05:27:01.599Z,52.50
2019-02-21T05:28:01.490Z,53.70
2019-02-21T05:29:01.387Z,51.80
2019-02-21T05:30:01.291Z,47.30
2019-02-21T05:31:01.301Z,48.50
2019-02-21T05:32:01.101Z,51.30
2019-02-21T05:33:01.004Z,50.60
2019-02-21T05:34:00.879Z,48.60
2019-02-21T05:35:00.782Z,48.00
2019-02-21T05:36:00.691Z,48.30
2019-02-21T05:37:00.590Z,51.50
2019-02-21T05:38:00.598Z,50.20
2019-02-21T05:39:00.370Z,51.70
2019-02-21T05:40:02.863Z,49.40
2019-02-21T05:41:00.185Z,43.40
2019-02-21T05:42:00.066Z,46.10
2019-02-21T05:42:59.968Z,46.90
2019-02-21T05:43:59.862Z,44.30
2019-02-21T05:44:59.869Z,49.10
2019-02-21T05:45:59.680Z,49.10
2019-02-21T05:46:59.556Z,48.00
2019-02-21T05:48:01.189Z,50.40
2019-02-21T05:48:59.356Z,50.50
2019-02-21T05:49:59.260Z,50.10
2019-02-21T05:50:59.172Z,46.70
2019-02-21T05:51:59.153Z,46.30
2019-02-21T05:52:58.952Z,44.50
2019-02-21T05:53:58.862Z,45.80
2019-02-21T05:54:58.749Z,46.70
2019-02-21T05:55:58.669Z,47.70
2019-02-21T05:56:58.552Z,47.40
2019-02-21T05:57:58.447Z,45.60
2019-02-21T05:58:58.447Z,44.70
2019-02-21T05:59:58.243Z,42.90
2019-02-21T06:00:58.154Z,45.90
2019-02-21T06:01:58.037Z,50.10
2019-02-21T06:02:57.942Z,56.70
2019-02-21T06:03:57.838Z,68.80
2019-02-21T06:04:57.734Z,71.80
2019-02-21T06:05:57.753Z,60.40
2019-02-21T06:06:57.529Z,64.30
2019-02-21T06:07:57.430Z,49.30
2019-02-21T06:08:57.333Z,72.10
2019-02-21T06:09:57.228Z,66.90
2019-02-21T06:10:57.635Z,67.40
2019-02-21T06:11:57.025Z,65.30
2019-02-21T06:12:59.619Z,59.30
2019-02-21T06:13:56.819Z,54.10
2019-02-21T06:14:56.719Z,50.80
2019-02-21T06:15:56.634Z,61.00
2019-02-21T06:16:56.516Z,62.20
2019-02-21T06:17:56.419Z,57.60
2019-02-21T06:18:56.437Z,63.80
2019-02-21T06:19:56.213Z,56.40
2019-02-21T06:20:57.623Z,51.40
2019-02-21T06:21:56.006Z,54.30
2019-02-21T06:22:55.906Z,65.30
2019-02-21T06:23:55.804Z,67.00
2019-02-21T06:24:55.702Z,61.80
2019-02-21T06:25:59.101Z,63.20
2019-02-21T06:26:55.503Z,62.30
2019-02-21T06:27:55.399Z,49.50
2019-02-21T06:28:55.295Z,46.30
2019-02-21T06:29:55.195Z,53.60
2019-02-21T06:30:55.108Z,50.40
2019-02-21T06:31:54.993Z,63.10
2019-02-21T06:33:04.532Z,65.50
2019-02-21T06:33:54.787Z,58.70
2019-02-21T06:34:54.685Z,58.50
2019-02-21T06:35:54.600Z,54.40
2019-02-21T06:36:54.483Z,53.20
2019-02-21T06:37:54.379Z,46.20
2019-02-21T06:38:54.280Z,48.70
2019-02-21T06:39:54.283Z,44.30
2019-02-21T06:40:54.095Z,45.70
2019-02-21T06:41:59.623Z,47.90
2019-02-21T06:42:53.871Z,56.20
2019-02-21T06:43:56.654Z,51.50
2019-02-21T06:44:53.670Z,49.40
2019-02-21T06:45:53.585Z,48.50
2019-02-21T06:46:53.497Z,52.10
2019-02-21T06:47:53.364Z,49.60
2019-02-21T06:48:53.306Z,45.50
2019-02-21T06:49:53.161Z,44.60
2019-02-21T06:50:53.083Z,46.50
2019-02-21T06:51:52.965Z,51.10
2019-02-21T06:52:52.857Z,49.20
2019-02-21T06:53:53.285Z,52.90
2019-02-21T06:54:52.650Z,54.90
2019-02-21T06:55:52.569Z,55.80
2019-02-21T06:56:52.447Z,48.50
2019-02-21T06:57:52.346Z,47.10
2019-02-21T06:58:52.245Z,43.00
2019-02-21T06:59:52.144Z,44.90
2019-02-21T07:00:52.062Z,45.60
2019-02-21T07:01:51.942Z,48.10
2019-02-21T07:02:54.199Z,47.10
2019-02-21T07:03:51.740Z,48.40
2019-02-21T07:04:51.638Z,46.70
2019-02-21T07:05:51.552Z,44.00
2019-02-21T07:06:51.434Z,45.20
2019-02-21T07:07:51.332Z,44.70
2019-02-21T07:08:51.231Z,43.40
2019-02-21T07:09:51.131Z,43.20
2019-02-21T07:10:51.043Z,44.30
2019-02-21T07:11:50.925Z,42.70
2019-02-21T07:12:50.827Z,41.70
2019-02-21T07:13:50.723Z,35.60
2019-02-21T07:14:50.625Z,36.40
2019-02-21T07:15:50.521Z,38.30
2019-02-21T07:16:50.437Z,35.70
2019-02-21T07:17:50.399Z,39.10
2019-02-21T07:18:50.216Z,39.70
2019-02-21T07:19:50.117Z,40.30
2019-02-21T07:20:50.026Z,39.80
2019-02-21T07:21:49.978Z,38.60
2019-02-21T07:22:49.814Z,36.10
2019-02-21T07:23:49.711Z,33.90
2019-02-21T07:24:49.654Z,33.70
2019-02-21T07:25:50.670Z,31.50
2019-02-21T07:26:49.429Z,28.50
2019-02-21T07:27:49.308Z,29.80
2019-02-21T07:28:49.210Z,31.20
2019-02-21T07:29:49.105Z,29.30
2019-02-21T07:30:49.006Z,28.50
2019-02-21T07:31:49.502Z,25.40
2019-02-21T07:32:48.807Z,27.90
2019-02-21T07:33:48.709Z,27.90
2019-02-21T07:34:48.604Z,28.30
2019-02-21T07:35:48.511Z,26.70
2019-02-21T07:36:50.149Z,26.80
2019-02-21T07:37:48.313Z,28.40
2019-02-21T07:38:48.204Z,28.60
2019-02-21T07:39:50.764Z,29.70
2019-02-21T07:40:48.009Z,29.40
2019-02-21T07:41:49.979Z,29.60
2019-02-21T07:42:48.275Z,32.40
2019-02-21T07:43:47.711Z,51.60
2019-02-21T07:44:47.646Z,59.20
2019-02-21T07:45:47.509Z,53.80
2019-02-21T07:46:47.427Z,36.20
2019-02-21T07:47:47.315Z,32.90
2019-02-21T07:48:47.214Z,31.10
2019-02-21T07:49:47.110Z,31.80
2019-02-21T07:50:47.054Z,31.70
2019-02-21T07:51:46.930Z,30.70
2019-02-21T07:52:46.821Z,31.00
2019-02-21T07:53:46.718Z,31.20
2019-02-21T07:54:49.371Z,32.00
2019-02-21T07:55:46.518Z,32.60
2019-02-21T07:56:46.447Z,32.10
2019-02-21T07:57:46.423Z,31.70
2019-02-21T07:58:46.220Z,33.50
2019-02-21T07:59:46.125Z,32.60
2019-02-21T08:00:46.026Z,30.90
2019-02-21T08:01:45.940Z,32.20
2019-02-21T08:02:45.826Z,32.30
2019-02-21T08:03:48.301Z,32.50
2019-02-21T08:04:45.730Z,32.90
2019-02-21T08:05:45.531Z,32.80
2019-02-21T08:06:45.446Z,32.40
2019-02-21T08:07:45.335Z,33.30
2019-02-21T08:08:45.232Z,32.00
2019-02-21T08:09:45.139Z,33.10
2019-02-21T08:10:45.048Z,32.30
2019-02-21T08:11:45.061Z,32.20
2019-02-21T08:12:44.843Z,32.00
2019-02-21T08:13:44.762Z,32.10
2019-02-21T08:14:44.661Z,33.70
2019-02-21T08:15:44.548Z,31.10
2019-02-21T08:16:44.474Z,32.60
2019-02-21T08:17:44.355Z,31.80
2019-02-21T08:18:44.351Z,31.70
2019-02-21T08:19:44.157Z,31.40
2019-02-21T08:20:44.056Z,32.30
2019-02-21T08:21:44.002Z,31.50
2019-02-21T08:22:43.864Z,32.00
2019-02-21T08:23:50.409Z,31.80
2019-02-21T08:24:43.670Z,30.60
2019-02-21T08:25:43.687Z,30.50
2019-02-21T08:26:43.489Z,29.70
2019-02-21T08:27:43.375Z,30.30
2019-02-21T08:28:43.278Z,30.10
2019-02-21T08:29:43.180Z,29.70
2019-02-21T08:30:43.084Z,29.70
2019-02-21T08:31:42.999Z,29.40
2019-02-21T08:32:42.994Z,28.30
2019-02-21T08:33:45.612Z,28.70
2019-02-21T08:34:42.693Z,28.10
2019-02-21T08:35:42.664Z,28.10
2019-02-21T08:36:42.519Z,27.30
2019-02-21T08:37:42.404Z,28.20
2019-02-21T08:38:42.303Z,27.70
2019-02-21T08:39:42.311Z,27.20
2019-02-21T08:40:42.116Z,27.60
2019-02-21T08:41:42.034Z,27.80
2019-02-21T08:42:41.918Z,28.40
2019-02-21T08:43:41.820Z,28.30
2019-02-21T08:44:41.726Z,28.20
2019-02-21T08:45:41.626Z,27.90
2019-02-21T08:46:41.698Z,28.50
2019-02-21T08:47:41.436Z,26.90
2019-02-21T08:48:41.342Z,28.30
2019-02-21T08:49:41.245Z,26.70
2019-02-21T08:50:41.145Z,26.40
2019-02-21T08:51:41.064Z,26.40
2019-02-21T08:52:40.953Z,26.90
2019-02-21T08:53:40.959Z,26.40
2019-02-21T08:54:40.761Z,27.50
2019-02-21T08:55:40.664Z,25.80
2019-02-21T08:56:40.615Z,26.20
2019-02-21T08:57:40.472Z,25.50
2019-02-21T08:58:40.433Z,25.70
2019-02-21T08:59:42.295Z,26.00
2019-02-21T09:00:40.287Z,26.10
2019-02-21T09:01:40.090Z,27.90
2019-02-21T09:02:40.006Z,26.80
2019-02-21T09:03:39.894Z,25.90
2019-02-21T09:04:39.803Z,26.80
2019-02-21T09:05:39.703Z,26.00
2019-02-21T09:06:39.719Z,25.90
2019-02-21T09:07:39.534Z,26.90
2019-02-21T09:08:39.416Z,26.10
2019-02-21T09:09:39.321Z,25.90
2019-02-21T09:10:39.221Z,26.30
2019-02-21T09:11:39.133Z,25.40
2019-02-21T09:12:39.046Z,26.10
2019-02-21T09:13:41.519Z,26.60
2019-02-21T09:14:38.944Z,26.60
2019-02-21T09:15:38.748Z,26.30
2019-02-21T09:16:38.654Z,26.40
2019-02-21T09:17:38.569Z,26.40
2019-02-21T09:18:38.457Z,26.50
2019-02-21T09:19:38.363Z,26.80
2019-02-21T09:20:38.396Z,26.10
2019-02-21T09:21:38.175Z,26.60
2019-02-21T09:22:38.096Z,26.20
2019-02-21T09:23:38.003Z,26.50
2019-02-21T09:24:42.014Z,25.80
2019-02-21T09:25:37.806Z,26.80
2019-02-21T09:26:37.694Z,26.10
2019-02-21T09:27:37.614Z,26.80
2019-02-21T09:28:37.502Z,26.40
2019-02-21T09:29:37.467Z,26.80
2019-02-21T09:30:37.327Z,27.10
2019-02-21T09:31:37.219Z,27.40
2019-02-21T09:32:37.154Z,27.60
2019-02-21T09:33:37.395Z,27.60
2019-02-21T09:34:36.926Z,27.60
2019-02-21T09:35:36.834Z,27.40
2019-02-21T09:36:36.751Z,28.80
2019-02-21T09:37:36.661Z,30.50
2019-02-21T09:38:36.619Z,30.40
2019-02-21T09:39:36.449Z,29.60
2019-02-21T09:40:36.359Z,29.40
2019-02-21T09:41:36.258Z,29.20
2019-02-21T09:42:36.177Z,27.60
2019-02-21T09:43:36.140Z,27.50
2019-02-21T09:44:36.003Z,27.70
2019-02-21T09:45:35.954Z,29.00
2019-02-21T09:46:35.779Z,28.30
2019-02-21T09:47:35.704Z,29.00
2019-02-21T09:48:35.590Z,28.30
2019-02-21T09:49:35.496Z,27.80
2019-02-21T09:50:35.396Z,28.60
2019-02-21T09:51:36.609Z,28.90
2019-02-21T09:52:35.219Z,27.80
2019-02-21T09:53:35.108Z,27.70
2019-02-21T09:54:35.017Z,27.80
2019-02-21T09:55:34.935Z,27.20
2019-02-21T09:56:34.825Z,28.10
2019-02-21T09:57:34.742Z,27.50
2019-02-21T09:58:34.632Z,27.10
2019-02-21T09:59:34.537Z,26.90
2019-02-21T10:00:36.022Z,27.60
2019-02-21T10:01:34.341Z,26.50
2019-02-21T10:02:34.262Z,26.40
2019-02-21T10:03:34.148Z,25.80
2019-02-21T10:04:34.060Z,26.10
2019-02-21T10:05:33.957Z,28.20
2019-02-21T10:06:33.863Z,26.90
2019-02-21T10:07:33.784Z,27.00
2019-02-21T10:08:33.672Z,26.70
2019-02-21T10:09:33.585Z,26.60
2019-02-21T10:10:33.476Z,26.80
2019-02-21T10:11:33.384Z,27.50
2019-02-21T10:12:33.305Z,26.60
2019-02-21T10:13:33.190Z,27.60
2019-02-21T10:14:33.093Z,27.20
2019-02-21T10:15:32.994Z,28.20
2019-02-21T10:16:32.902Z,26.90
2019-02-21T10:17:32.819Z,27.00
2019-02-21T10:18:32.706Z,27.10
2019-02-21T10:19:32.610Z,27.30
2019-02-21T10:20:32.514Z,26.00
2019-02-21T10:21:32.415Z,24.70
2019-02-21T10:22:32.335Z,26.00
2019-02-21T10:23:32.221Z,26.10
2019-02-21T10:24:32.129Z,24.60
2019-02-21T10:25:32.030Z,25.70
2019-02-21T10:26:31.928Z,24.80
2019-02-21T10:27:31.853Z,24.20
2019-02-21T10:28:32.583Z,22.70
2019-02-21T10:29:31.639Z,23.60
2019-02-21T10:30:31.570Z,23.30
2019-02-21T10:31:31.445Z,23.30
2019-02-21T10:32:31.366Z,23.70
2019-02-21T10:33:31.251Z,22.40
2019-02-21T10:34:31.155Z,21.40
2019-02-21T10:35:31.072Z,22.20
2019-02-21T10:36:30.960Z,20.10
2019-02-21T10:37:30.988Z,19.50
2019-02-21T10:38:30.768Z,19.20
2019-02-21T10:39:30.672Z,19.50
2019-02-21T10:40:32.723Z,18.20
2019-02-21T10:41:30.485Z,17.80
2019-02-21T10:42:30.400Z,18.80
2019-02-21T10:43:30.285Z,17.80
2019-02-21T10:44:30.292Z,18.00
2019-02-21T10:45:30.091Z,17.10
2019-02-21T10:46:30.885Z,17.20
2019-02-21T10:47:29.903Z,17.60
2019-02-21T10:48:29.818Z,17.80
2019-02-21T10:49:29.711Z,17.40
2019-02-21T10:50:29.608Z,17.20
2019-02-21T10:51:29.616Z,16.90
2019-02-21T10:52:29.423Z,16.60
2019-02-21T10:53:29.338Z,15.60
2019-02-21T10:54:29.223Z,15.60
2019-02-21T10:55:29.185Z,15.10
2019-02-21T10:56:29.028Z,15.70
2019-02-21T10:57:28.934Z,14.90
2019-02-21T10:58:28.953Z,14.30
2019-02-21T10:59:28.740Z,14.70
2019-02-21T11:00:28.657Z,14.30
2019-02-21T11:01:28.550Z,14.70
2019-02-21T11:02:28.452Z,14.80
2019-02-21T11:03:28.372Z,14.20
2019-02-21T11:04:28.269Z,14.40
2019-02-21T11:05:28.270Z,15.80
2019-02-21T11:06:28.061Z,13.80
2019-02-21T11:07:27.972Z,13.70
2019-02-21T11:08:27.889Z,14.00
2019-02-21T11:09:27.775Z,13.90
2019-02-21T11:10:27.680Z,14.20
2019-02-21T11:11:27.582Z,14.30
2019-02-21T11:12:27.589Z,14.40
2019-02-21T11:13:27.404Z,13.80
2019-02-21T11:14:27.292Z,13.70
2019-02-21T11:15:27.195Z,13.50
2019-02-21T11:16:27.100Z,13.30
2019-02-21T11:17:27.007Z,13.70
2019-02-21T11:18:26.922Z,13.40
2019-02-21T11:19:26.915Z,13.60
2019-02-21T11:20:26.717Z,13.60
2019-02-21T11:21:26.622Z,13.70
2019-02-21T11:22:26.521Z,13.80
2019-02-21T11:23:26.445Z,14.40
2019-02-21T11:24:26.335Z,14.10
2019-02-21T11:25:26.238Z,13.50
2019-02-21T11:26:26.241Z,13.50
2019-02-21T11:27:26.042Z,13.40
2019-02-21T11:28:25.965Z,14.00
2019-02-21T11:29:25.852Z,14.00
2019-02-21T11:30:25.760Z,13.70
2019-02-21T11:31:27.789Z,14.00
2019-02-21T11:32:25.562Z,15.10
2019-02-21T11:33:25.584Z,14.60
2019-02-21T11:34:25.372Z,14.50
2019-02-21T11:35:25.276Z,15.30
2019-02-21T11:36:25.183Z,15.70
2019-02-21T11:37:25.084Z,15.30
2019-02-21T11:38:25.004Z,16.00
2019-02-21T11:39:24.993Z,15.10
2019-02-21T11:40:24.795Z,15.60
2019-02-21T11:41:24.699Z,15.80
2019-02-21T11:42:24.605Z,15.90
2019-02-21T11:43:24.525Z,17.20
2019-02-21T11:44:24.411Z,17.00
2019-02-21T11:45:24.314Z,17.30
2019-02-21T11:46:24.223Z,17.10
2019-02-21T11:47:24.225Z,16.80
2019-02-21T11:48:24.040Z,17.10
2019-02-21T11:49:23.933Z,18.60
2019-02-21T11:50:23.835Z,17.90
2019-02-21T11:51:23.738Z,16.80
2019-02-21T11:52:23.638Z,16.80
2019-02-21T11:53:23.557Z,17.20
2019-02-21T11:54:26.708Z,18.30
2019-02-21T11:55:23.348Z,18.10
2019-02-21T11:56:23.252Z,17.80
2019-02-21T11:57:23.154Z,19.50
2019-02-21T11:58:23.077Z,19.10
2019-02-21T11:59:22.961Z,18.70
2019-02-21T12:00:22.867Z,19.30
2019-02-21T12:01:22.770Z,19.50
2019-02-21T12:02:22.675Z,19.40
2019-02-21T12:03:22.606Z,18.70
2019-02-21T12:04:24.388Z,19.10
2019-02-21T12:05:30.407Z,18.70
2019-02-21T12:06:22.284Z,19.40
2019-02-21T12:07:22.185Z,19.40
2019-02-21T12:08:22.108Z,19.50
2019-02-21T12:09:21.992Z,19.90
2019-02-21T12:10:21.895Z,19.00
2019-02-21T12:11:21.795Z,19.50
2019-02-21T12:12:21.699Z,20.10
2019-02-21T12:13:21.620Z,19.00
2019-02-21T12:14:21.507Z,20.80
2019-02-21T12:15:21.424Z,20.10
2019-02-21T12:16:21.319Z,20.30
2019-02-21T12:17:21.214Z,20.20
2019-02-21T12:18:21.130Z,21.80
2019-02-21T12:19:21.017Z,21.10
2019-02-21T12:20:20.920Z,21.20
2019-02-21T12:21:20.827Z,21.50
2019-02-21T12:22:20.728Z,21.60
2019-02-21T12:23:20.644Z,21.70
2019-02-21T12:24:20.532Z,21.00
2019-02-21T12:25:20.435Z,22.10
2019-02-21T12:26:20.335Z,21.30
2019-02-21T12:27:20.239Z,21.00
2019-02-21T12:28:20.160Z,21.40
2019-02-21T12:29:20.043Z,20.50
2019-02-21T12:30:19.944Z,20.70
2019-02-21T12:31:19.852Z,20.50
2019-02-21T12:32:19.751Z,21.80
2019-02-21T12:33:19.657Z,22.20
2019-02-21T12:34:19.571Z,20.20
2019-02-21T12:35:29.125Z,21.30
2019-02-21T12:36:19.362Z,21.00
2019-02-21T12:37:19.265Z,21.20
2019-02-21T12:38:19.165Z,21.10
2019-02-21T12:39:19.086Z,20.60
2019-02-21T12:40:18.971Z,20.50
2019-02-21T12:41:18.870Z,21.00
2019-02-21T12:42:18.769Z,20.60
2019-02-21T12:43:18.679Z,21.00
2019-02-21T12:44:18.594Z,21.20
2019-02-21T12:45:18.793Z,21.10
2019-02-21T12:46:18.382Z,20.50
2019-02-21T12:47:18.283Z,20.60
2019-02-21T12:48:18.190Z,22.80
2019-02-21T12:49:18.105Z,20.40
2019-02-21T12:50:18.088Z,21.00
2019-02-21T12:51:17.891Z,21.30